FQQL

Details ICAO FQQL (UEL)
Name QUELIMANE
Region Mozambique
Timezone Africa/Maputo (UTC+2.0)
Plans Departing 3
Arriving 3
Stats Elevation 36 ft / 11 m (AMSL)
Location -17.853192° 36.869569°
Runways 2
Magnetic Variation 10.401° W
Sunrise 2017-12-11 02:51:54 UTC / 2017-12-11 04:51:54 Local
Sunset 2017-12-11 16:02:28 UTC / 2017-12-11 18:02:28 Local
Advertisement - Login to hide

Runways

ID Width Length Bearing (true) Bearing (mag) Surface Threshold Offset Overrun Length
09 98 ft / 30 m 3,027 ft / 923 m 84.31° 94.71° Gravel 0 ft / 0 m 0 ft / 0 m
18 148 ft / 45 m 5,931 ft / 1,808 m 174.30° 184.70° Asphalt 0 ft / 0 m 0 ft / 0 m
27 98 ft / 30 m 3,027 ft / 923 m 264.31° 274.71° Gravel 0 ft / 0 m 0 ft / 0 m
36 148 ft / 45 m 5,931 ft / 1,808 m 354.30° 4.70° Asphalt 0 ft / 0 m 0 ft / 0 m

Map

Weather


0- 5 10 15 20 25 30 35+ Temperature / ° C

Clouds and Precipitation
Forecast for 2017-12-11 18:00 UTC. Updated 24 minutes ago

Ground ~20,000 ft ~40,000 ft Winds

METAR

FQQL 111700Z 11008KT 080V150 9999 FEW020 BKN100 26/22 Q1014

TAF

TAF FQQL 111000Z 1112/1212 15010KT 9999 SCT020 BECMG 1118/1120 09008KT BECMG 1206/1208 01006KT TN24/1203Z TX30/1112Z

Frequencies

Tower 118.30 MHz TWR
Warning: Do not use this data for real-world aviation or navigation. No guarantee of current accuracy is given.